sensor_id;sensor_type;location;lat;lon;timestamp;pressure;altitude;pressure_sealevel;temperature;humidity
60479;BME280;46321;48.398;11.754;2023-05-09T00:01:46;96969.59;;;9.68;74.53
60479;BME280;46321;48.398;11.754;2023-05-09T00:04:11;96968.84;;;9.76;74.21
60479;BME280;46321;48.398;11.754;2023-05-09T00:06:37;96969.47;;;9.69;73.88
60479;BME280;46321;48.398;11.754;2023-05-09T00:09:02;96964.31;;;9.68;74.02
60479;BME280;46321;48.398;11.754;2023-05-09T00:11:29;96968.94;;;9.66;74.41
60479;BME280;46321;48.398;11.754;2023-05-09T00:13:54;96960.88;;;9.67;74.24
60479;BME280;46321;48.398;11.754;2023-05-09T00:16:19;96956.56;;;9.66;73.70
60479;BME280;46321;48.398;11.754;2023-05-09T00:18:47;96954.25;;;9.63;73.88
60479;BME280;46321;48.398;11.754;2023-05-09T00:21:13;96959.53;;;9.63;73.73
60479;BME280;46321;48.398;11.754;2023-05-09T00:23:38;96946.13;;;9.56;73.77
60479;BME280;46321;48.398;11.754;2023-05-09T00:26:04;96953.03;;;9.57;73.38
60479;BME280;46321;48.398;11.754;2023-05-09T00:28:29;96952.69;;;9.52;73.91
60479;BME280;46321;48.398;11.754;2023-05-09T00:30:55;96951.66;;;9.45;74.12
60479;BME280;46321;48.398;11.754;2023-05-09T00:33:20;96948.88;;;9.46;73.64
60479;BME280;46321;48.398;11.754;2023-05-09T00:35:46;96951.66;;;9.45;73.76
60479;BME280;46321;48.398;11.754;2023-05-09T00:38:11;96948.34;;;9.43;73.43
60479;BME280;46321;48.398;11.754;2023-05-09T00:40:37;96944.88;;;9.42;72.77
60479;BME280;46321;48.398;11.754;2023-05-09T00:43:02;96950.00;;;9.44;72.76
60479;BME280;46321;48.398;11.754;2023-05-09T00:45:29;96941.72;;;9.38;72.39
60479;BME280;46321;48.398;11.754;2023-05-09T00:47:55;96937.06;;;9.32;72.53
60479;BME280;46321;48.398;11.754;2023-05-09T00:50:20;96940.06;;;9.37;72.71
60479;BME280;46321;48.398;11.754;2023-05-09T00:52:46;96929.78;;;9.34;72.34
60479;BME280;46321;48.398;11.754;2023-05-09T00:55:12;96931.47;;;9.35;72.14
60479;BME280;46321;48.398;11.754;2023-05-09T00:57:37;96930.00;;;9.41;72.11
60479;BME280;46321;48.398;11.754;2023-05-09T01:00:03;96936.94;;;9.42;71.83
60479;BME280;46321;48.398;11.754;2023-05-09T01:02:29;96931.16;;;9.38;71.88
60479;BME280;46321;48.398;11.754;2023-05-09T01:04:54;96925.34;;;9.35;71.64
60479;BME280;46321;48.398;11.754;2023-05-09T01:07:32;96915.97;;;9.41;71.21
60479;BME280;46321;48.398;11.754;2023-05-09T01:10:07;96916.13;;;9.39;71.06
60479;BME280;46321;48.398;11.754;2023-05-09T01:12:54;96921.94;;;9.43;71.03
60479;BME280;46321;48.398;11.754;2023-05-09T01:15:23;96913.00;;;9.44;70.51
60479;BME280;46321;48.398;11.754;2023-05-09T01:17:57;96908.84;;;9.41;70.12
60479;BME280;46321;48.398;11.754;2023-05-09T01:20:44;96902.78;;;9.41;70.00
60479;BME280;46321;48.398;11.754;2023-05-09T01:26:03;96903.78;;;9.48;69.11
60479;BME280;46321;48.398;11.754;2023-05-09T01:31:19;96897.03;;;9.54;68.16
60479;BME280;46321;48.398;11.754;2023-05-09T01:33:50;96902.31;;;9.54;67.25
60479;BME280;46321;48.398;11.754;2023-05-09T01:36:18;96899.22;;;9.58;67.01
60479;BME280;46321;48.398;11.754;2023-05-09T01:38:47;96892.25;;;9.57;67.08
60479;BME280;46321;48.398;11.754;2023-05-09T01:41:15;96898.56;;;9.65;66.82
60479;BME280;46321;48.398;11.754;2023-05-09T01:43:44;96890.63;;;9.56;66.92
60479;BME280;46321;48.398;11.754;2023-05-09T01:46:11;96902.00;;;9.57;67.07
60479;BME280;46321;48.398;11.754;2023-05-09T01:48:37;96898.84;;;9.53;67.13
60479;BME280;46321;48.398;11.754;2023-05-09T01:51:03;96900.94;;;9.41;67.31
60479;BME280;46321;48.398;11.754;2023-05-09T01:53:29;96901.09;;;9.39;67.41
60479;BME280;46321;48.398;11.754;2023-05-09T01:55:56;96899.75;;;9.35;67.50
60479;BME280;46321;48.398;11.754;2023-05-09T01:58:22;96901.22;;;9.30;67.52
60479;BME280;46321;48.398;11.754;2023-05-09T02:00:49;96904.47;;;9.23;68.34
60479;BME280;46321;48.398;11.754;2023-05-09T02:03:15;96892.91;;;9.16;68.45
60479;BME280;46321;48.398;11.754;2023-05-09T02:05:41;96903.38;;;9.08;68.14
60479;BME280;46321;48.398;11.754;2023-05-09T02:08:07;96903.09;;;9.11;68.37
60479;BME280;46321;48.398;11.754;2023-05-09T02:10:34;96903.56;;;9.06;68.08
60479;BME280;46321;48.398;11.754;2023-05-09T02:12:59;96898.56;;;9.03;68.13
60479;BME280;46321;48.398;11.754;2023-05-09T02:15:25;96905.31;;;8.97;68.46
60479;BME280;46321;48.398;11.754;2023-05-09T02:17:51;96894.38;;;8.92;69.18
60479;BME280;46321;48.398;11.754;2023-05-09T02:20:17;96892.53;;;8.84;68.85
60479;BME280;46321;48.398;11.754;2023-05-09T02:22:42;96895.34;;;8.82;69.40
60479;BME280;46321;48.398;11.754;2023-05-09T02:25:11;96892.81;;;8.81;69.18
60479;BME280;46321;48.398;11.754;2023-05-09T02:27:42;96895.34;;;8.82;69.35
60479;BME280;46321;48.398;11.754;2023-05-09T02:30:13;96887.13;;;8.67;71.41
60479;BME280;46321;48.398;11.754;2023-05-09T02:32:40;96886.31;;;8.67;69.84
60479;BME280;46321;48.398;11.754;2023-05-09T02:35:07;96887.78;;;8.69;69.67
60479;BME280;46321;48.398;11.754;2023-05-09T02:37:34;96879.34;;;8.66;70.11
60479;BME280;46321;48.398;11.754;2023-05-09T02:40:00;96886.59;;;8.64;70.43
60479;BME280;46321;48.398;11.754;2023-05-09T02:42:25;96881.06;;;8.57;70.51
60479;BME280;46321;48.398;11.754;2023-05-09T02:44:52;96885.28;;;8.50;70.33
60479;BME280;46321;48.398;11.754;2023-05-09T02:47:18;96883.50;;;8.50;70.42
60479;BME280;46321;48.398;11.754;2023-05-09T02:49:43;96879.72;;;8.53;70.21
60479;BME280;46321;48.398;11.754;2023-05-09T02:52:09;96885.63;;;8.46;71.20
60479;BME280;46321;48.398;11.754;2023-05-09T02:54:35;96882.44;;;8.43;70.71
60479;BME280;46321;48.398;11.754;2023-05-09T02:57:00;96875.53;;;8.42;71.23
60479;BME280;46321;48.398;11.754;2023-05-09T02:59:26;96874.69;;;8.41;70.80
60479;BME280;46321;48.398;11.754;2023-05-09T03:01:51;96877.31;;;8.41;71.18
60479;BME280;46321;48.398;11.754;2023-05-09T03:04:16;96877.63;;;8.38;70.99
60479;BME280;46321;48.398;11.754;2023-05-09T03:06:42;96871.81;;;8.34;71.11
60479;BME280;46321;48.398;11.754;2023-05-09T03:09:07;96871.44;;;8.29;71.98
60479;BME280;46321;48.398;11.754;2023-05-09T03:11:34;96871.59;;;8.28;72.01
60479;BME280;46321;48.398;11.754;2023-05-09T03:14:01;96866.47;;;8.26;71.97
60479;BME280;46321;48.398;11.754;2023-05-09T03:16:26;96864.97;;;8.23;72.67
60479;BME280;46321;48.398;11.754;2023-05-09T03:18:51;96859.03;;;8.21;72.17
60479;BME280;46321;48.398;11.754;2023-05-09T03:21:16;96865.41;;;8.19;72.52
60479;BME280;46321;48.398;11.754;2023-05-09T03:23:42;96867.38;;;8.17;73.14
60479;BME280;46321;48.398;11.754;2023-05-09T03:26:07;96868.66;;;8.12;73.22
60479;BME280;46321;48.398;11.754;2023-05-09T03:28:32;96858.41;;;8.09;73.05
60479;BME280;46321;48.398;11.754;2023-05-09T03:30:57;96847.34;;;8.06;73.38
60479;BME280;46321;48.398;11.754;2023-05-09T03:33:23;96858.19;;;8.02;73.27
60479;BME280;46321;48.398;11.754;2023-05-09T03:35:48;96855.69;;;8.01;73.52
60479;BME280;46321;48.398;11.754;2023-05-09T03:38:13;96859.47;;;7.98;73.47
60479;BME280;46321;48.398;11.754;2023-05-09T03:40:38;96848.41;;;7.95;74.14
60479;BME280;46321;48.398;11.754;2023-05-09T03:43:04;96846.72;;;7.94;74.21
60479;BME280;46321;48.398;11.754;2023-05-09T03:45:29;96848.25;;;7.96;74.01
60479;BME280;46321;48.398;11.754;2023-05-09T03:47:54;96851.47;;;7.90;74.41
60479;BME280;46321;48.398;11.754;2023-05-09T03:50:20;96846.22;;;7.90;74.29
60479;BME280;46321;48.398;11.754;2023-05-09T03:52:45;96845.66;;;7.86;74.09
60479;BME280;46321;48.398;11.754;2023-05-09T03:55:10;96850.47;;;7.91;73.97
60479;BME280;46321;48.398;11.754;2023-05-09T03:57:36;96858.72;;;7.88;74.04
60479;BME280;46321;48.398;11.754;2023-05-09T04:00:02;96854.72;;;7.84;74.29
60479;BME280;46321;48.398;11.754;2023-05-09T04:02:29;96857.88;;;7.87;74.44
60479;BME280;46321;48.398;11.754;2023-05-09T04:04:55;96859.97;;;7.84;74.40
60479;BME280;46321;48.398;11.754;2023-05-09T04:07:20;96865.69;;;7.79;74.33
60479;BME280;46321;48.398;11.754;2023-05-09T04:09:46;96874.88;;;7.75;74.88
60479;BME280;46321;48.398;11.754;2023-05-09T04:12:11;96876.25;;;7.79;74.60
60479;BME280;46321;48.398;11.754;2023-05-09T04:14:37;96876.75;;;7.83;73.99
60479;BME280;46321;48.398;11.754;2023-05-09T04:17:02;96874.13;;;7.83;74.49
60479;BME280;46321;48.398;11.754;2023-05-09T04:19:28;96871.94;;;7.78;74.80
60479;BME280;46321;48.398;11.754;2023-05-09T04:21:53;96874.28;;;7.81;74.40
60479;BME280;46321;48.398;11.754;2023-05-09T04:24:18;96872.47;;;7.82;74.53
60479;BME280;46321;48.398;11.754;2023-05-09T04:26:44;96872.78;;;7.78;75.30
60479;BME280;46321;48.398;11.754;2023-05-09T04:29:10;96877.88;;;7.80;75.09
60479;BME280;46321;48.398;11.754;2023-05-09T04:31:35;96874.97;;;7.83;74.39
60479;BME280;46321;48.398;11.754;2023-05-09T04:34:00;96875.19;;;7.90;74.06
60479;BME280;46321;48.398;11.754;2023-05-09T04:36:26;96871.34;;;7.84;74.21
60479;BME280;46321;48.398;11.754;2023-05-09T04:38:52;96877.13;;;7.70;74.61
60479;BME280;46321;48.398;11.754;2023-05-09T04:41:17;96875.59;;;7.67;74.61
60479;BME280;46321;48.398;11.754;2023-05-09T04:43:43;96873.38;;;7.72;74.31
60479;BME280;46321;48.398;11.754;2023-05-09T04:46:08;96868.34;;;7.79;73.97
60479;BME280;46321;48.398;11.754;2023-05-09T04:48:34;96870.53;;;7.84;74.14
60479;BME280;46321;48.398;11.754;2023-05-09T04:50:59;96870.97;;;7.79;74.51
60479;BME280;46321;48.398;11.754;2023-05-09T04:53:25;96862.69;;;7.92;73.91
60479;BME280;46321;48.398;11.754;2023-05-09T04:55:50;96863.09;;;7.97;73.59
60479;BME280;46321;48.398;11.754;2023-05-09T04:58:16;96859.63;;;7.97;73.66
60479;BME280;46321;48.398;11.754;2023-05-09T05:00:41;96851.09;;;8.03;73.41
60479;BME280;46321;48.398;11.754;2023-05-09T05:03:06;96859.25;;;8.10;73.05
60479;BME280;46321;48.398;11.754;2023-05-09T05:05:31;96862.94;;;8.17;72.40
60479;BME280;46321;48.398;11.754;2023-05-09T05:07:57;96862.72;;;8.29;72.30
60479;BME280;46321;48.398;11.754;2023-05-09T05:10:22;96857.56;;;8.27;72.18
60479;BME280;46321;48.398;11.754;2023-05-09T05:12:47;96855.78;;;8.28;72.07
60479;BME280;46321;48.398;11.754;2023-05-09T05:15:12;96852.69;;;8.32;72.48
60479;BME280;46321;48.398;11.754;2023-05-09T05:17:38;96844.00;;;8.40;71.99
60479;BME280;46321;48.398;11.754;2023-05-09T05:20:03;96840.53;;;8.58;71.35
60479;BME280;46321;48.398;11.754;2023-05-09T05:22:31;96840.28;;;8.69;71.24
60479;BME280;46321;48.398;11.754;2023-05-09T05:24:56;96847.44;;;8.77;71.40
60479;BME280;46321;48.398;11.754;2023-05-09T05:27:21;96840.28;;;8.96;71.12
60479;BME280;46321;48.398;11.754;2023-05-09T05:29:46;96837.84;;;9.03;70.24
60479;BME280;46321;48.398;11.754;2023-05-09T05:32:12;96837.97;;;9.28;69.29
60479;BME280;46321;48.398;11.754;2023-05-09T05:34:37;96840.81;;;9.35;68.83
60479;BME280;46321;48.398;11.754;2023-05-09T05:37:03;96840.72;;;9.53;68.39
60479;BME280;46321;48.398;11.754;2023-05-09T05:39:29;96836.94;;;9.56;67.16
60479;BME280;46321;48.398;11.754;2023-05-09T05:41:54;96836.28;;;9.70;67.46
60479;BME280;46321;48.398;11.754;2023-05-09T05:44:19;96832.50;;;9.73;66.51
60479;BME280;46321;48.398;11.754;2023-05-09T05:46:45;96844.41;;;9.77;67.09
60479;BME280;46321;48.398;11.754;2023-05-09T05:49:10;96842.13;;;9.91;66.00
60479;BME280;46321;48.398;11.754;2023-05-09T05:51:35;96847.41;;;9.82;66.83
60479;BME280;46321;48.398;11.754;2023-05-09T05:54:01;96851.03;;;9.81;66.41
60479;BME280;46321;48.398;11.754;2023-05-09T05:56:26;96847.09;;;9.85;65.99
60479;BME280;46321;48.398;11.754;2023-05-09T05:58:51;96846.47;;;10.08;65.51
60479;BME280;46321;48.398;11.754;2023-05-09T06:01:16;96846.81;;;10.14;64.60
60479;BME280;46321;48.398;11.754;2023-05-09T06:03:42;96850.94;;;10.25;65.05
60479;BME280;46321;48.398;11.754;2023-05-09T06:06:07;96844.16;;;10.22;64.20
60479;BME280;46321;48.398;11.754;2023-05-09T06:08:32;96842.16;;;10.24;64.98
60479;BME280;46321;48.398;11.754;2023-05-09T06:10:59;96846.00;;;10.38;64.09
60479;BME280;46321;48.398;11.754;2023-05-09T06:13:25;96839.53;;;10.49;64.53
60479;BME280;46321;48.398;11.754;2023-05-09T06:15:54;96823.03;;;10.64;63.84
60479;BME280;46321;48.398;11.754;2023-05-09T06:18:19;96840.88;;;10.62;62.97
60479;BME280;46321;48.398;11.754;2023-05-09T06:20:44;96828.63;;;10.69;62.96
60479;BME280;46321;48.398;11.754;2023-05-09T06:23:10;96838.84;;;10.89;63.04
60479;BME280;46321;48.398;11.754;2023-05-09T06:25:35;96831.56;;;10.99;62.07
60479;BME280;46321;48.398;11.754;2023-05-09T06:28:00;96839.19;;;10.94;61.76
60479;BME280;46321;48.398;11.754;2023-05-09T06:30:29;96835.66;;;11.10;62.03
60479;BME280;46321;48.398;11.754;2023-05-09T06:32:54;96827.03;;;11.17;61.33
60479;BME280;46321;48.398;11.754;2023-05-09T06:35:19;96826.16;;;11.25;62.41
60479;BME280;46321;48.398;11.754;2023-05-09T06:37:45;96817.41;;;11.16;62.10
60479;BME280;46321;48.398;11.754;2023-05-09T06:40:10;96818.34;;;11.40;61.89
60479;BME280;46321;48.398;11.754;2023-05-09T06:42:35;96813.00;;;11.48;61.92
60479;BME280;46321;48.398;11.754;2023-05-09T06:45:01;96812.69;;;11.43;60.56
60479;BME280;46321;48.398;11.754;2023-05-09T06:47:26;96813.97;;;11.55;60.62
60479;BME280;46321;48.398;11.754;2023-05-09T06:49:51;96801.81;;;11.61;61.49
60479;BME280;46321;48.398;11.754;2023-05-09T06:52:17;96792.56;;;11.57;60.52
60479;BME280;46321;48.398;11.754;2023-05-09T06:54:42;96799.75;;;11.80;60.67
60479;BME280;46321;48.398;11.754;2023-05-09T06:57:07;96788.19;;;11.73;59.56
60479;BME280;46321;48.398;11.754;2023-05-09T06:59:32;96781.56;;;11.92;59.90
60479;BME280;46321;48.398;11.754;2023-05-09T07:01:58;96776.50;;;12.14;60.26
60479;BME280;46321;48.398;11.754;2023-05-09T07:04:23;96776.78;;;12.19;60.88
60479;BME280;46321;48.398;11.754;2023-05-09T07:06:48;96771.06;;;12.46;57.77
60479;BME280;46321;48.398;11.754;2023-05-09T07:09:14;96769.09;;;12.63;58.47
60479;BME280;46321;48.398;11.754;2023-05-09T07:11:41;96781.84;;;12.83;56.82
60479;BME280;46321;48.398;11.754;2023-05-09T07:14:07;96777.63;;;12.89;56.27
60479;BME280;46321;48.398;11.754;2023-05-09T07:16:32;96767.69;;;13.13;57.53
60479;BME280;46321;48.398;11.754;2023-05-09T07:18:57;96764.84;;;13.30;56.32
60479;BME280;46321;48.398;11.754;2023-05-09T07:21:23;96767.31;;;13.31;55.73
60479;BME280;46321;48.398;11.754;2023-05-09T07:23:48;96766.09;;;13.49;56.00
60479;BME280;46321;48.398;11.754;2023-05-09T07:26:13;96767.66;;;13.58;55.10
60479;BME280;46321;48.398;11.754;2023-05-09T07:28:38;96759.91;;;13.79;55.99
60479;BME280;46321;48.398;11.754;2023-05-09T07:31:04;96760.78;;;14.08;54.77
60479;BME280;46321;48.398;11.754;2023-05-09T07:33:30;96763.94;;;14.47;53.25
60479;BME280;46321;48.398;11.754;2023-05-09T07:35:57;96758.00;;;14.45;53.06
60479;BME280;46321;48.398;11.754;2023-05-09T07:38:23;96753.63;;;14.08;53.69
60479;BME280;46321;48.398;11.754;2023-05-09T07:40:48;96737.22;;;13.83;54.73
60479;BME280;46321;48.398;11.754;2023-05-09T07:43:13;96742.56;;;14.34;53.70
60479;BME280;46321;48.398;11.754;2023-05-09T07:45:39;96738.34;;;14.46;52.84
60479;BME280;46321;48.398;11.754;2023-05-09T07:48:04;96735.41;;;14.70;52.79
60479;BME280;46321;48.398;11.754;2023-05-09T07:50:30;96731.28;;;14.60;53.24
60479;BME280;46321;48.398;11.754;2023-05-09T07:52:55;96730.09;;;14.70;53.04
60479;BME280;46321;48.398;11.754;2023-05-09T07:55:20;96718.31;;;15.28;52.80
60479;BME280;46321;48.398;11.754;2023-05-09T07:57:46;96723.53;;;15.64;51.57
60479;BME280;46321;48.398;11.754;2023-05-09T08:00:12;96728.28;;;15.75;50.40
60479;BME280;46321;48.398;11.754;2023-05-09T08:02:38;96720.09;;;15.77;50.02
60479;BME280;46321;48.398;11.754;2023-05-09T08:05:03;96732.16;;;15.59;50.64
60479;BME280;46321;48.398;11.754;2023-05-09T08:07:28;96724.44;;;15.22;51.89
60479;BME280;46321;48.398;11.754;2023-05-09T08:09:54;96728.06;;;15.70;51.07
60479;BME280;46321;48.398;11.754;2023-05-09T08:12:19;96723.63;;;16.05;49.71
60479;BME280;46321;48.398;11.754;2023-05-09T08:14:44;96725.53;;;15.48;50.76
60479;BME280;46321;48.398;11.754;2023-05-09T08:17:09;96715.78;;;15.89;49.08
60479;BME280;46321;48.398;11.754;2023-05-09T08:19:35;96716.09;;;15.39;49.37
60479;BME280;46321;48.398;11.754;2023-05-09T08:22:00;96704.28;;;16.02;49.94
60479;BME280;46321;48.398;11.754;2023-05-09T08:24:25;96702.25;;;16.25;48.80
60479;BME280;46321;48.398;11.754;2023-05-09T08:26:51;96701.66;;;17.03;47.99
60479;BME280;46321;48.398;11.754;2023-05-09T08:29:16;96698.50;;;16.53;47.86
60479;BME280;46321;48.398;11.754;2023-05-09T08:31:42;96696.81;;;16.86;47.33
60479;BME280;46321;48.398;11.754;2023-05-09T08:34:07;96684.53;;;17.24;46.97
60479;BME280;46321;48.398;11.754;2023-05-09T08:36:32;96685.34;;;17.64;47.24
60479;BME280;46321;48.398;11.754;2023-05-09T08:38:58;96683.56;;;17.83;46.22
60479;BME280;46321;48.398;11.754;2023-05-09T08:41:26;96685.66;;;17.49;45.30
60479;BME280;46321;48.398;11.754;2023-05-09T08:43:55;96683.03;;;17.68;45.67
60479;BME280;46321;48.398;11.754;2023-05-09T08:46:27;96682.09;;;17.55;45.13
60479;BME280;46321;48.398;11.754;2023-05-09T08:48:53;96680.06;;;17.50;46.73
60479;BME280;46321;48.398;11.754;2023-05-09T08:51:19;96674.69;;;17.57;46.01
60479;BME280;46321;48.398;11.754;2023-05-09T08:53:45;96665.78;;;17.96;47.05
60479;BME280;46321;48.398;11.754;2023-05-09T08:56:11;96662.03;;;18.67;45.42
60479;BME280;46321;48.398;11.754;2023-05-09T08:58:37;96661.53;;;17.56;45.72
60479;BME280;46321;48.398;11.754;2023-05-09T09:01:02;96664.25;;;17.74;46.33
60479;BME280;46321;48.398;11.754;2023-05-09T09:03:31;96662.25;;;17.95;46.00
60479;BME280;46321;48.398;11.754;2023-05-09T09:05:57;96658.13;;;16.96;46.78
60479;BME280;46321;48.398;11.754;2023-05-09T09:08:24;96658.66;;;16.52;47.66
60479;BME280;46321;48.398;11.754;2023-05-09T09:10:51;96659.19;;;16.81;47.61
60479;BME280;46321;48.398;11.754;2023-05-09T09:13:18;96652.66;;;17.23;47.74
60479;BME280;46321;48.398;11.754;2023-05-09T09:15:45;96653.66;;;17.61;46.21
60479;BME280;46321;48.398;11.754;2023-05-09T09:18:17;96649.31;;;17.92;45.29
60479;BME280;46321;48.398;11.754;2023-05-09T09:20:51;96654.25;;;18.40;45.86
60479;BME280;46321;48.398;11.754;2023-05-09T09:23:18;96643.63;;;18.71;43.22
60479;BME280;46321;48.398;11.754;2023-05-09T09:25:46;96633.28;;;18.37;45.06
60479;BME280;46321;48.398;11.754;2023-05-09T09:28:11;96625.00;;;18.95;44.89
60479;BME280;46321;48.398;11.754;2023-05-09T09:30:42;96615.72;;;19.71;43.84
60479;BME280;46321;48.398;11.754;2023-05-09T09:33:08;96604.81;;;21.33;41.09
60479;BME280;46321;48.398;11.754;2023-05-09T09:35:37;96607.88;;;21.54;39.19
60479;BME280;46321;48.398;11.754;2023-05-09T09:38:04;96602.84;;;20.45;40.93
60479;BME280;46321;48.398;11.754;2023-05-09T09:40:30;96599.19;;;22.38;38.96
60479;BME280;46321;48.398;11.754;2023-05-09T09:42:55;96607.22;;;21.81;37.51
60479;BME280;46321;48.398;11.754;2023-05-09T09:45:20;96602.06;;;22.98;36.72
60479;BME280;46321;48.398;11.754;2023-05-09T09:47:47;96594.00;;;23.87;35.70
60479;BME280;46321;48.398;11.754;2023-05-09T09:50:15;96584.66;;;24.54;33.40
60479;BME280;46321;48.398;11.754;2023-05-09T09:52:54;96582.44;;;24.35;33.29
60479;BME280;46321;48.398;11.754;2023-05-09T09:55:22;96582.69;;;23.57;33.44
60479;BME280;46321;48.398;11.754;2023-05-09T09:57:48;96567.97;;;24.73;32.97
60479;BME280;46321;48.398;11.754;2023-05-09T10:00:16;96565.69;;;25.23;30.82
60479;BME280;46321;48.398;11.754;2023-05-09T10:02:52;96565.06;;;23.49;30.19
60479;BME280;46321;48.398;11.754;2023-05-09T10:05:25;96567.44;;;22.23;34.78
60479;BME280;46321;48.398;11.754;2023-05-09T10:07:59;96551.13;;;23.63;33.09
60479;BME280;46321;48.398;11.754;2023-05-09T10:10:26;96550.38;;;24.16;34.07
60479;BME280;46321;48.398;11.754;2023-05-09T10:12:53;96549.44;;;23.89;33.52
60479;BME280;46321;48.398;11.754;2023-05-09T10:15:20;96549.81;;;23.38;31.75
60479;BME280;46321;48.398;11.754;2023-05-09T10:17:48;96542.56;;;23.10;31.92
60479;BME280;46321;48.398;11.754;2023-05-09T10:20:17;96539.94;;;23.21;33.79
60479;BME280;46321;48.398;11.754;2023-05-09T10:22:43;96530.59;;;22.51;35.32
60479;BME280;46321;48.398;11.754;2023-05-09T10:25:16;96534.28;;;23.50;33.71
60479;BME280;46321;48.398;11.754;2023-05-09T10:27:44;96538.56;;;23.79;33.55
60479;BME280;46321;48.398;11.754;2023-05-09T10:30:17;96531.84;;;24.30;32.60
60479;BME280;46321;48.398;11.754;2023-05-09T10:33:08;96527.53;;;23.48;32.91
60479;BME280;46321;48.398;11.754;2023-05-09T10:35:44;96509.50;;;22.25;35.61
60479;BME280;46321;48.398;11.754;2023-05-09T10:38:11;96514.34;;;22.68;34.90
60479;BME280;46321;48.398;11.754;2023-05-09T10:40:37;96504.75;;;23.43;34.46
60479;BME280;46321;48.398;11.754;2023-05-09T10:43:02;96505.44;;;22.68;34.62
60479;BME280;46321;48.398;11.754;2023-05-09T10:45:29;96491.91;;;21.60;37.32
60479;BME280;46321;48.398;11.754;2023-05-09T10:47:56;96501.63;;;21.44;34.85
60479;BME280;46321;48.398;11.754;2023-05-09T10:50:22;96497.72;;;21.00;38.04
60479;BME280;46321;48.398;11.754;2023-05-09T10:58:26;96479.16;;;20.28;38.32
60479;BME280;46321;48.398;11.754;2023-05-09T11:00:57;96487.47;;;20.14;39.24
60479;BME280;46321;48.398;11.754;2023-05-09T11:03:27;96470.72;;;19.71;40.38
60479;BME280;46321;48.398;11.754;2023-05-09T11:05:54;96469.06;;;19.82;39.58
60479;BME280;46321;48.398;11.754;2023-05-09T11:08:28;96469.28;;;19.93;39.61
60479;BME280;46321;48.398;11.754;2023-05-09T11:11:04;96460.31;;;19.75;38.19
60479;BME280;46321;48.398;11.754;2023-05-09T11:13:31;96463.41;;;20.20;39.10
60479;BME280;46321;48.398;11.754;2023-05-09T11:18:26;96443.75;;;19.78;39.75
60479;BME280;46321;48.398;11.754;2023-05-09T11:20:51;96445.69;;;19.83;38.13
60479;BME280;46321;48.398;11.754;2023-05-09T11:23:18;96454.50;;;19.42;39.26
60479;BME280;46321;48.398;11.754;2023-05-09T11:25:47;96441.19;;;19.35;38.41
60479;BME280;46321;48.398;11.754;2023-05-09T11:30:52;96435.94;;;19.28;38.88
60479;BME280;46321;48.398;11.754;2023-05-09T11:33:26;96429.31;;;19.31;40.57
60479;BME280;46321;48.398;11.754;2023-05-09T11:39:01;96417.97;;;19.41;39.83
60479;BME280;46321;48.398;11.754;2023-05-09T11:41:28;96418.03;;;18.98;40.86
60479;BME280;46321;48.398;11.754;2023-05-09T11:43:53;96407.22;;;18.93;39.99
60479;BME280;46321;48.398;11.754;2023-05-09T11:46:20;96399.50;;;18.96;41.85
60479;BME280;46321;48.398;11.754;2023-05-09T11:48:47;96389.50;;;19.04;40.91
60479;BME280;46321;48.398;11.754;2023-05-09T11:51:18;96385.56;;;19.30;39.65
60479;BME280;46321;48.398;11.754;2023-05-09T11:53:45;96380.78;;;19.32;38.60
60479;BME280;46321;48.398;11.754;2023-05-09T11:56:14;96374.78;;;19.42;39.83
60479;BME280;46321;48.398;11.754;2023-05-09T11:58:39;96377.94;;;19.51;40.85
60479;BME280;46321;48.398;11.754;2023-05-09T12:01:05;96370.16;;;19.38;40.27
60479;BME280;46321;48.398;11.754;2023-05-09T12:03:31;96369.09;;;19.51;39.32
60479;BME280;46321;48.398;11.754;2023-05-09T12:05:56;96369.28;;;19.61;39.57
60479;BME280;46321;48.398;11.754;2023-05-09T12:08:23;96370.59;;;19.22;38.69
60479;BME280;46321;48.398;11.754;2023-05-09T12:10:48;96358.69;;;19.54;41.39
60479;BME280;46321;48.398;11.754;2023-05-09T12:13:14;96355.47;;;19.82;40.92
60479;BME280;46321;48.398;11.754;2023-05-09T12:15:39;96347.59;;;19.92;39.28
60479;BME280;46321;48.398;11.754;2023-05-09T12:18:06;96352.31;;;19.85;39.22
60479;BME280;46321;48.398;11.754;2023-05-09T12:20:43;96344.31;;;19.61;40.06
60479;BME280;46321;48.398;11.754;2023-05-09T12:23:09;96342.13;;;19.33;39.51
60479;BME280;46321;48.398;11.754;2023-05-09T12:25:35;96337.22;;;19.42;39.48
60479;BME280;46321;48.398;11.754;2023-05-09T12:28:01;96336.25;;;19.61;39.48
60479;BME280;46321;48.398;11.754;2023-05-09T12:30:26;96333.09;;;19.64;39.66
60479;BME280;46321;48.398;11.754;2023-05-09T12:32:51;96323.28;;;19.70;39.17
60479;BME280;46321;48.398;11.754;2023-05-09T12:35:19;96319.28;;;19.84;38.42
60479;BME280;46321;48.398;11.754;2023-05-09T12:37:57;96316.34;;;19.86;41.03
60479;BME280;46321;48.398;11.754;2023-05-09T12:40:22;96318.75;;;19.58;39.81
60479;BME280;46321;48.398;11.754;2023-05-09T12:42:48;96311.81;;;19.74;39.60
60479;BME280;46321;48.398;11.754;2023-05-09T12:45:13;96308.44;;;19.79;40.78
60479;BME280;46321;48.398;11.754;2023-05-09T12:47:39;96310.44;;;19.72;41.43
60479;BME280;46321;48.398;11.754;2023-05-09T12:50:06;96302.63;;;19.70;39.47
60479;BME280;46321;48.398;11.754;2023-05-09T12:52:33;96303.84;;;19.50;39.81
60479;BME280;46321;48.398;11.754;2023-05-09T12:55:04;96291.84;;;19.41;40.76
60479;BME280;46321;48.398;11.754;2023-05-09T12:57:30;96286.31;;;19.60;39.69
60479;BME280;46321;48.398;11.754;2023-05-09T12:59:59;96280.59;;;19.85;40.35
60479;BME280;46321;48.398;11.754;2023-05-09T13:02:25;96283.72;;;19.94;39.57
60479;BME280;46321;48.398;11.754;2023-05-09T13:05:12;96280.25;;;19.64;39.06
60479;BME280;46321;48.398;11.754;2023-05-09T13:07:44;96274.59;;;19.37;39.52
60479;BME280;46321;48.398;11.754;2023-05-09T13:10:15;96268.97;;;19.38;39.75
60479;BME280;46321;48.398;11.754;2023-05-09T13:12:43;96274.25;;;19.33;40.49